Time;durP1;ratioP1;P1;durP2;ratioP2;P2;SDS_P1;SDS_P2;PMS_P1;PMS_P2;Temp;Humidity;BMP_temperature;BMP_pressure;BME280_temperature;BME280_humidity;BME280_pressure;Samples;Min_cycle;Max_cycle;Signal;HPM_P1;HPM_P2
2024/01/19 00:01:41;;;;;;;14.23;10.10;;;-1.50;99.90;;;;;;5096574;28;20232;-83
2024/01/19 00:04:08;;;;;;;10.05;8.02;;;-1.50;99.90;;;;;;5096126;28;20210;-83
2024/01/19 00:06:39;;;;;;;17.20;8.80;;;-1.50;99.90;;;;;;5096297;28;20226;-84
2024/01/19 00:09:06;;;;;;;11.25;9.27;;;-1.50;99.90;;;;;;5096358;28;20206;-83
2024/01/19 00:11:33;;;;;;;17.52;10.57;;;-1.50;99.90;;;;;;5097028;28;20217;-83
2024/01/19 00:14:00;;;;;;;15.90;9.82;;;-1.50;99.90;;;;;;5096087;28;20205;-83
2024/01/19 00:16:27;;;;;;;14.85;10.30;;;-1.50;99.90;;;;;;5077815;28;20251;-82
2024/01/19 00:18:53;;;;;;;19.77;12.27;;;-1.50;99.90;;;;;;5076474;28;20213;-84
2024/01/19 00:21:20;;;;;;;15.50;11.00;;;-1.40;99.90;;;;;;5091581;28;20292;-83
2024/01/19 00:23:49;;;;;;;23.85;12.15;;;-1.40;99.90;;;;;;5095000;28;20231;-83
2024/01/19 00:26:16;;;;;;;24.65;12.45;;;-1.40;99.90;;;;;;5099099;28;20276;-82
2024/01/19 00:28:43;;;;;;;14.68;11.20;;;-1.50;99.90;;;;;;5098397;28;20214;-83
2024/01/19 00:31:10;;;;;;;20.80;13.68;;;-1.40;99.90;;;;;;5091097;28;20213;-82
2024/01/19 00:33:39;;;;;;;23.67;14.45;;;-1.40;99.90;;;;;;5098226;28;20295;-83
2024/01/19 00:36:06;;;;;;;25.70;15.68;;;-1.30;99.90;;;;;;5099160;28;20218;-83
2024/01/19 00:38:33;;;;;;;22.52;14.00;;;-1.30;99.90;;;;;;5089859;28;20304;-83
2024/01/19 00:41:01;;;;;;;22.67;13.87;;;-1.30;99.90;;;;;;5098473;28;20211;-81
2024/01/19 00:43:28;;;;;;;20.25;13.73;;;-1.40;99.90;;;;;;5091246;28;20478;-83
2024/01/19 00:45:55;;;;;;;26.85;15.60;;;-1.40;99.90;;;;;;5078315;28;20222;-83
2024/01/19 00:48:22;;;;;;;34.47;17.92;;;-1.40;99.90;;;;;;5078319;28;20221;-83
2024/01/19 00:50:49;;;;;;;28.58;16.85;;;-1.40;99.90;;;;;;5088724;28;20300;-83
2024/01/19 00:53:18;;;;;;;31.42;18.70;;;-1.30;99.90;;;;;;5098312;28;20211;-83
2024/01/19 00:55:46;;;;;;;34.05;20.05;;;-1.40;99.90;;;;;;5100474;28;20227;-83
2024/01/19 00:58:15;;;;;;;38.67;19.83;;;-1.50;99.90;;;;;;5097079;28;20629;-83
2024/01/19 01:00:42;;;;;;;30.25;17.02;;;-1.50;99.90;;;;;;5078949;28;20732;-84
2024/01/19 01:03:09;;;;;;;37.15;21.80;;;-1.40;99.90;;;;;;5097129;28;20221;-84
2024/01/19 01:05:37;;;;;;;38.42;21.85;;;-1.40;99.90;;;;;;5078718;28;20211;-84
2024/01/19 01:08:05;;;;;;;38.80;21.63;;;-1.40;99.90;;;;;;5078902;28;20221;-85
2024/01/19 01:10:33;;;;;;;35.10;21.38;;;-1.40;99.90;;;;;;5097157;28;20203;-85
2024/01/19 01:13:02;;;;;;;31.92;19.77;;;-1.40;99.90;;;;;;5113559;28;20228;-83
2024/01/19 01:15:31;;;;;;;30.45;18.77;;;-1.40;99.90;;;;;;5103962;28;20225;-83
2024/01/19 01:17:58;;;;;;;33.03;19.23;;;-1.40;99.90;;;;;;5117522;28;20197;-82
2024/01/19 01:20:26;;;;;;;35.63;18.33;;;-1.40;99.90;;;;;;5099124;28;20270;-83
2024/01/19 01:22:54;;;;;;;34.00;17.05;;;-1.40;99.90;;;;;;5097313;28;20227;-83
2024/01/19 01:25:21;;;;;;;30.38;17.35;;;-1.40;99.90;;;;;;5101090;28;20225;-83
2024/01/19 01:27:49;;;;;;;26.48;15.68;;;-1.40;99.90;;;;;;5102401;28;20306;-83
2024/01/19 01:30:20;;;;;;;29.65;17.10;;;-1.40;99.90;;;;;;5103151;28;20292;-83
2024/01/19 01:32:48;;;;;;;31.42;15.60;;;-1.40;99.90;;;;;;5106989;28;20235;-83
2024/01/19 01:35:15;;;;;;;27.50;15.95;;;-1.40;99.90;;;;;;5101545;28;20687;-82
2024/01/19 01:37:42;;;;;;;23.15;15.90;;;-1.40;99.90;;;;;;5100912;28;20229;-83
2024/01/19 01:40:10;;;;;;;29.52;14.55;;;-1.40;99.90;;;;;;5101043;28;20306;-82
2024/01/19 01:42:37;;;;;;;23.95;14.95;;;-1.40;99.90;;;;;;5101141;28;20231;-82
2024/01/19 01:45:05;;;;;;;24.13;14.68;;;-1.40;99.90;;;;;;5101098;28;20221;-83
2024/01/19 01:47:32;;;;;;;23.38;12.90;;;-1.40;99.90;;;;;;5101287;28;20303;-83
2024/01/19 01:50:00;;;;;;;22.33;13.70;;;-1.50;99.90;;;;;;5101643;28;20215;-82
2024/01/19 01:52:27;;;;;;;23.45;13.80;;;-1.60;99.90;;;;;;5100780;28;20273;-82
2024/01/19 01:54:54;;;;;;;21.83;12.43;;;-1.60;99.90;;;;;;5091015;28;20235;-82
2024/01/19 01:57:23;;;;;;;22.77;12.77;;;-1.70;99.90;;;;;;5080430;28;20218;-84
2024/01/19 01:59:51;;;;;;;22.88;13.68;;;-1.60;99.90;;;;;;5098287;28;20268;-82
2024/01/19 02:02:18;;;;;;;21.75;13.18;;;-1.60;99.90;;;;;;5101446;28;20688;-81
2024/01/19 02:04:45;;;;;;;17.33;12.32;;;-1.70;99.90;;;;;;5100388;28;20581;-83
2024/01/19 02:07:13;;;;;;;23.30;13.48;;;-1.60;99.90;;;;;;5092561;28;20234;-80
2024/01/19 02:09:40;;;;;;;22.13;11.30;;;-1.60;99.90;;;;;;5107707;28;20208;-80
2024/01/19 02:12:07;;;;;;;22.00;13.40;;;-1.60;99.90;;;;;;5111377;28;20217;-80
2024/01/19 02:14:34;;;;;;;17.88;12.07;;;-1.60;99.90;;;;;;5095835;28;20236;-82
2024/01/19 02:17:01;;;;;;;24.60;13.15;;;-1.50;99.90;;;;;;5109345;28;20283;-80
2024/01/19 02:19:28;;;;;;;18.13;11.75;;;-1.40;99.90;;;;;;5111392;28;20264;-81
2024/01/19 02:21:55;;;;;;;15.75;11.18;;;-1.30;99.90;;;;;;5111507;28;20205;-80
2024/01/19 02:24:23;;;;;;;18.52;11.93;;;-1.20;99.90;;;;;;5108576;28;20243;-81
2024/01/19 02:26:50;;;;;;;17.30;12.07;;;-1.20;99.90;;;;;;5099234;28;20291;-81
2024/01/19 02:29:19;;;;;;;20.08;12.63;;;-1.10;99.90;;;;;;5099720;28;20569;-82
2024/01/19 02:31:46;;;;;;;22.60;15.05;;;-1.10;99.90;;;;;;5099072;28;20216;-81
2024/01/19 02:34:13;;;;;;;22.63;13.93;;;-1.20;99.90;;;;;;5098894;28;20290;-82
2024/01/19 02:36:40;;;;;;;17.05;12.48;;;-1.20;99.90;;;;;;5084371;28;20228;-82
2024/01/19 02:39:13;;;;;;;18.50;12.77;;;-1.10;99.90;;;;;;5077133;28;20302;-82
2024/01/19 02:41:41;;;;;;;22.63;11.77;;;-1.20;99.90;;;;;;5077233;28;20190;-82
2024/01/19 02:44:08;;;;;;;20.67;13.00;;;-1.20;99.90;;;;;;5097256;28;20587;-82
2024/01/19 02:46:38;;;;;;;22.90;13.20;;;-1.30;99.90;;;;;;5097002;28;20229;-80
2024/01/19 02:49:05;;;;;;;18.33;12.65;;;-1.30;99.90;;;;;;5086559;28;20302;-83
2024/01/19 02:51:32;;;;;;;23.20;14.60;;;-1.20;99.90;;;;;;5077548;28;20210;-82
2024/01/19 02:53:58;;;;;;;25.05;13.95;;;-1.20;99.90;;;;;;5090388;28;20685;-81
2024/01/19 02:56:25;;;;;;;24.08;13.93;;;-1.30;99.90;;;;;;5097035;28;20231;-82
2024/01/19 02:58:53;;;;;;;26.58;16.08;;;-1.30;99.90;;;;;;5096950;28;20205;-82
2024/01/19 03:01:20;;;;;;;21.42;14.07;;;-1.30;99.90;;;;;;5097392;28;20206;-82
2024/01/19 03:03:47;;;;;;;27.90;15.80;;;-1.30;99.90;;;;;;5096638;28;20760;-82
2024/01/19 03:06:14;;;;;;;34.17;17.23;;;-1.20;99.90;;;;;;5096891;28;20237;-81
2024/01/19 03:08:41;;;;;;;27.98;17.98;;;-1.10;99.90;;;;;;5096696;28;20209;-82
2024/01/19 03:11:07;;;;;;;26.80;19.02;;;-1.10;99.90;;;;;;5096228;28;20216;-82
2024/01/19 03:13:34;;;;;;;32.78;18.38;;;-1.10;99.90;;;;;;5096565;28;20296;-81
2024/01/19 03:16:06;;;;;;;31.23;19.45;;;-1.00;99.90;;;;;;5096537;28;20231;-82
2024/01/19 03:18:33;;;;;;;33.30;20.02;;;-0.90;99.90;;;;;;5096654;28;20587;-82
2024/01/19 03:20:59;;;;;;;44.33;20.90;;;-0.90;99.90;;;;;;5095828;28;20215;-81
2024/01/19 03:23:26;;;;;;;43.95;20.92;;;-0.90;99.90;;;;;;5095630;28;20226;-82
2024/01/19 03:25:53;;;;;;;37.67;19.92;;;-0.80;99.90;;;;;;5086938;28;20708;-82
2024/01/19 03:28:23;;;;;;;35.90;20.00;;;-0.80;99.90;;;;;;5095719;28;20207;-82
2024/01/19 03:30:49;;;;;;;44.03;19.80;;;-0.80;99.90;;;;;;5095309;28;20215;-83
2024/01/19 03:33:18;;;;;;;30.77;18.55;;;-0.80;99.90;;;;;;5088176;28;20237;-80
2024/01/19 03:35:45;;;;;;;36.50;19.30;;;-0.80;99.90;;;;;;5094903;28;20226;-81
2024/01/19 03:38:12;;;;;;;35.97;21.58;;;-0.70;99.90;;;;;;5078396;28;20752;-80
2024/01/19 03:40:39;;;;;;;33.03;18.85;;;-0.80;99.90;;;;;;5095296;28;20201;-81
2024/01/19 03:43:06;;;;;;;34.25;20.45;;;-0.70;99.90;;;;;;5084524;28;20240;-82
2024/01/19 03:45:34;;;;;;;37.72;19.75;;;-0.80;99.90;;;;;;5090513;28;20215;-82
2024/01/19 03:48:01;;;;;;;34.67;18.60;;;-0.70;99.90;;;;;;5096499;28;20586;-82
2024/01/19 03:50:29;;;;;;;36.55;19.13;;;-0.70;99.90;;;;;;5098471;28;20237;-81
2024/01/19 03:52:56;;;;;;;41.92;20.42;;;-0.70;99.90;;;;;;5096365;28;20211;-82
2024/01/19 03:55:23;;;;;;;30.17;17.92;;;-0.60;99.90;;;;;;5096036;28;20230;-81
2024/01/19 03:57:49;;;;;;;31.00;18.13;;;-0.60;99.90;;;;;;5095464;28;20211;-81
2024/01/19 04:00:16;;;;;;;30.50;15.95;;;-0.60;99.90;;;;;;5095041;28;20208;-81
2024/01/19 04:02:43;;;;;;;34.78;18.75;;;-0.70;99.90;;;;;;5094590;28;20222;-81
2024/01/19 04:05:10;;;;;;;37.70;18.67;;;-0.70;99.90;;;;;;5094337;28;20556;-81
2024/01/19 04:07:38;;;;;;;47.88;20.67;;;-0.60;99.90;;;;;;5094406;28;20229;-83
2024/01/19 04:10:06;;;;;;;33.42;18.10;;;-0.60;99.90;;;;;;5094373;28;20206;-82
2024/01/19 04:12:32;;;;;;;31.13;17.75;;;-0.60;99.90;;;;;;5094851;28;20217;-81
2024/01/19 04:14:59;;;;;;;45.10;20.05;;;-0.40;99.90;;;;;;5094298;28;20210;-81
2024/01/19 04:17:26;;;;;;;39.10;20.02;;;-0.50;99.90;;;;;;5086732;28;20246;-81
2024/01/19 04:19:53;;;;;;;33.80;16.80;;;-0.50;99.90;;;;;;5095049;28;20218;-81
2024/01/19 04:22:19;;;;;;;40.08;19.85;;;-0.40;99.90;;;;;;5098772;28;20211;-81
2024/01/19 04:24:48;;;;;;;34.80;17.75;;;-0.40;99.90;;;;;;5112264;28;20215;-83
2024/01/19 04:27:14;;;;;;;34.35;18.00;;;-0.40;99.90;;;;;;5112016;28;20262;-81
2024/01/19 04:29:41;;;;;;;39.47;18.67;;;-0.40;99.90;;;;;;5109339;28;20207;-83
2024/01/19 04:32:08;;;;;;;43.75;19.75;;;-0.30;99.90;;;;;;5090321;28;20208;-85
2024/01/19 04:34:35;;;;;;;34.13;18.05;;;-0.30;99.90;;;;;;5090086;28;20207;-80
2024/01/19 04:37:01;;;;;;;37.78;20.30;;;-0.20;99.90;;;;;;5093263;28;20230;-83
2024/01/19 04:39:28;;;;;;;36.67;19.15;;;-0.20;99.90;;;;;;5099061;28;20212;-84
2024/01/19 04:41:56;;;;;;;39.42;19.50;;;-0.20;99.90;;;;;;5099217;28;20681;-81
2024/01/19 04:44:23;;;;;;;40.35;19.13;;;-0.10;99.90;;;;;;5099151;28;20237;-82
2024/01/19 04:46:50;;;;;;;41.13;19.02;;;-0.20;99.90;;;;;;5097065;28;20219;-83
2024/01/19 04:49:17;;;;;;;45.75;20.98;;;-0.20;99.90;;;;;;5097689;28;20381;-83
2024/01/19 04:51:43;;;;;;;38.90;20.10;;;-0.30;99.90;;;;;;5097055;28;20717;-83
2024/01/19 04:54:10;;;;;;;35.80;18.33;;;-0.30;99.90;;;;;;5088418;28;20303;-83
2024/01/19 04:56:37;;;;;;;37.10;19.23;;;-0.10;99.90;;;;;;5096334;28;20313;-84
2024/01/19 04:59:06;;;;;;;38.40;17.97;;;-0.10;99.90;;;;;;5096565;28;20207;-83
2024/01/19 05:01:32;;;;;;;38.08;19.75;;;-0.10;99.90;;;;;;5096674;28;20867;-82
2024/01/19 05:03:59;;;;;;;35.22;19.65;;;-0.20;99.90;;;;;;5097231;28;20220;-81
2024/01/19 05:06:26;;;;;;;36.92;17.52;;;-0.20;99.90;;;;;;5096980;28;20310;-83
2024/01/19 05:08:53;;;;;;;38.90;18.08;;;-0.10;99.90;;;;;;5097497;28;20219;-83
2024/01/19 05:11:20;;;;;;;34.75;17.88;;;-0.10;99.90;;;;;;5098207;28;20672;-82
2024/01/19 05:13:47;;;;;;;36.38;20.15;;;0.00;99.90;;;;;;5090136;28;20200;-83
2024/01/19 05:16:15;;;;;;;35.03;18.48;;;0.00;99.90;;;;;;5092832;28;20232;-82
2024/01/19 05:18:44;;;;;;;47.10;20.45;;;0.00;99.90;;;;;;5094754;28;20291;-83
2024/01/19 05:21:11;;;;;;;42.20;18.48;;;0.10;99.90;;;;;;5100873;28;20295;-84
2024/01/19 05:23:38;;;;;;;46.97;21.75;;;0.00;99.90;;;;;;5094001;28;20234;-81
2024/01/19 05:26:05;;;;;;;33.92;19.15;;;0.00;99.90;;;;;;5096959;28;20227;-82
2024/01/19 05:28:33;;;;;;;43.03;19.00;;;0.00;99.90;;;;;;5081385;28;20207;-84
2024/01/19 05:31:00;;;;;;;32.83;17.52;;;0.00;99.90;;;;;;5087601;28;20214;-82
2024/01/19 05:33:28;;;;;;;43.47;18.63;;;0.00;99.90;;;;;;5087947;28;20206;-83
2024/01/19 05:35:55;;;;;;;43.13;19.45;;;0.00;99.90;;;;;;5092666;28;20227;-84
2024/01/19 05:38:22;;;;;;;39.10;20.90;;;0.10;99.90;;;;;;5090399;28;20690;-84
2024/01/19 05:40:48;;;;;;;37.42;19.85;;;0.00;99.90;;;;;;5092587;28;20202;-83
2024/01/19 05:43:15;;;;;;;40.70;19.05;;;-0.10;99.90;;;;;;5095446;28;20266;-84
2024/01/19 05:45:42;;;;;;;41.38;17.75;;;0.10;99.90;;;;;;5094861;28;20228;-85
2024/01/19 05:48:09;;;;;;;40.78;18.55;;;0.10;99.90;;;;;;5096178;28;20212;-85
2024/01/19 05:50:37;;;;;;;45.23;19.53;;;0.10;99.90;;;;;;5095446;28;20698;-82
2024/01/19 05:53:04;;;;;;;45.13;20.60;;;0.10;99.90;;;;;;5096076;28;21119;-85
2024/01/19 05:55:31;;;;;;;40.90;20.90;;;0.20;99.90;;;;;;5094980;28;20370;-84
2024/01/19 05:57:58;;;;;;;38.53;18.70;;;0.20;99.90;;;;;;5095768;28;20817;-83
2024/01/19 06:00:24;;;;;;;30.60;17.23;;;0.20;99.90;;;;;;5095728;28;20454;-84
2024/01/19 06:02:51;;;;;;;38.47;18.10;;;0.20;99.90;;;;;;5097095;28;20214;-83
2024/01/19 06:05:18;;;;;;;48.25;20.48;;;0.20;99.90;;;;;;5096154;28;20517;-82
2024/01/19 06:07:46;;;;;;;35.83;18.10;;;0.20;99.90;;;;;;5090898;28;20266;-85
2024/01/19 06:10:13;;;;;;;40.55;20.35;;;0.20;99.90;;;;;;5086087;28;20447;-83
2024/01/19 06:12:40;;;;;;;45.97;18.75;;;0.30;99.90;;;;;;5081515;28;20211;-79
2024/01/19 06:15:07;;;;;;;39.05;17.60;;;0.20;99.90;;;;;;5089259;28;20222;-81
2024/01/19 06:17:34;;;;;;;38.13;18.85;;;0.30;99.90;;;;;;5092595;28;20303;-81
2024/01/19 06:20:01;;;;;;;48.13;20.40;;;0.30;99.90;;;;;;5081600;28;20205;-82
2024/01/19 06:22:28;;;;;;;48.63;20.70;;;0.30;99.90;;;;;;5092363;28;20223;-80
2024/01/19 06:24:56;;;;;;;48.80;23.30;;;0.20;99.90;;;;;;5100322;28;20646;-83
2024/01/19 06:27:23;;;;;;;41.63;20.80;;;0.20;99.90;;;;;;5095195;28;20562;-80
2024/01/19 06:29:51;;;;;;;45.33;22.35;;;0.20;99.90;;;;;;5086763;28;20458;-81
2024/01/19 06:32:18;;;;;;;38.65;18.33;;;0.20;99.90;;;;;;5090622;28;20254;-82
2024/01/19 06:34:45;;;;;;;43.75;19.27;;;0.30;99.90;;;;;;5092856;28;20193;-80
2024/01/19 06:37:12;;;;;;;39.55;21.60;;;0.30;99.90;;;;;;5084330;28;20228;-80
2024/01/19 06:39:39;;;;;;;46.27;20.60;;;0.40;99.90;;;;;;5091396;28;20302;-81
2024/01/19 06:42:09;;;;;;;40.90;19.47;;;0.30;99.90;;;;;;5081379;28;20460;-84
2024/01/19 06:44:36;;;;;;;43.20;20.87;;;0.30;99.90;;;;;;5094630;28;20523;-78
2024/01/19 06:47:03;;;;;;;37.97;18.37;;;0.20;99.90;;;;;;5093537;28;20493;-81
2024/01/19 06:49:29;;;;;;;39.60;21.17;;;0.40;99.90;;;;;;5088079;28;20952;-83
2024/01/19 06:51:56;;;;;;;39.17;20.13;;;0.40;99.90;;;;;;5090184;28;20454;-80
2024/01/19 06:54:23;;;;;;;43.67;21.70;;;0.40;99.90;;;;;;5081284;28;20945;-82
2024/01/19 06:56:50;;;;;;;48.53;22.80;;;0.50;99.90;;;;;;5091298;28;20474;-82
2024/01/19 06:59:18;;;;;;;37.17;18.70;;;0.40;99.90;;;;;;5088126;28;20454;-81
2024/01/19 07:01:45;;;;;;;44.10;21.73;;;0.40;99.90;;;;;;5086876;28;20942;-81
2024/01/19 07:04:12;;;;;;;42.28;20.33;;;0.50;99.90;;;;;;5081688;28;20460;-80
2024/01/19 07:06:39;;;;;;;41.20;20.17;;;0.40;99.90;;;;;;5093374;28;20713;-82
2024/01/19 07:09:06;;;;;;;37.00;18.70;;;0.40;99.90;;;;;;5092451;28;20424;-81
2024/01/19 07:11:32;;;;;;;42.38;20.50;;;0.40;99.90;;;;;;5083547;28;20462;-82
2024/01/19 07:13:59;;;;;;;48.10;21.80;;;0.40;99.90;;;;;;5088853;28;20683;-79
2024/01/19 07:16:27;;;;;;;40.70;21.60;;;0.40;99.90;;;;;;5087480;28;20766;-80
2024/01/19 07:18:54;;;;;;;39.45;20.30;;;0.40;99.90;;;;;;5087115;28;20444;-80
2024/01/19 07:21:22;;;;;;;47.45;22.63;;;0.40;99.90;;;;;;5084356;28;20313;-83
2024/01/19 07:23:49;;;;;;;40.57;20.70;;;0.40;99.90;;;;;;5090236;28;20238;-82
2024/01/19 07:26:19;;;;;;;45.80;23.55;;;0.50;99.90;;;;;;5089810;28;20561;-81
2024/01/19 07:28:52;;;;;;;42.70;23.13;;;0.50;99.90;;;;;;5096810;28;20199;-83
2024/01/19 07:31:19;;;;;;;42.57;21.70;;;0.50;99.90;;;;;;5088706;28;20465;-82
2024/01/19 07:33:47;;;;;;;54.60;24.57;;;0.50;99.90;;;;;;5090504;28;21104;-86
2024/01/19 07:36:15;;;;;;;55.17;23.20;;;0.60;99.90;;;;;;5092442;28;20457;-82
2024/01/19 07:38:42;;;;;;;50.27;24.30;;;0.60;99.90;;;;;;5094566;28;20458;-82
2024/01/19 07:41:09;;;;;;;47.20;24.00;;;0.60;99.90;;;;;;5095016;28;20480;-81
2024/01/19 07:43:36;;;;;;;49.70;24.67;;;0.60;99.90;;;;;;5095580;28;20461;-81
2024/01/19 07:46:22;;;;;;;;;;;;;;;;;;;;;
2024/01/19 07:48:50;;;;;;;53.80;24.00;;;0.60;99.90;;;;;;5097010;28;20214;-81
2024/01/19 07:51:24;;;;;;;49.00;24.87;;;0.70;99.90;;;;;;5097691;28;20457;-83
2024/01/19 07:53:55;;;;;;;40.53;22.80;;;0.80;99.90;;;;;;5096456;28;20454;-82
2024/01/19 07:56:21;;;;;;;50.10;24.87;;;0.80;99.90;;;;;;5091966;28;20502;-82
2024/01/19 07:58:53;;;;;;;40.10;23.70;;;0.80;99.90;;;;;;5092364;28;20468;-84
2024/01/19 08:01:20;;;;;;;39.47;20.60;;;0.90;99.90;;;;;;5096948;28;20557;-84
2024/01/19 08:03:53;;;;;;;42.70;23.13;;;1.00;99.90;;;;;;5087653;28;21032;-81
2024/01/19 08:06:20;;;;;;;42.53;23.33;;;1.00;99.90;;;;;;5095916;28;20541;-82
2024/01/19 08:08:47;;;;;;;39.77;23.47;;;1.10;99.90;;;;;;5091170;28;20908;-81
2024/01/19 08:11:17;;;;;;;47.40;26.33;;;1.10;99.90;;;;;;5089340;28;20484;-81
2024/01/19 08:13:47;;;;;;;36.53;20.67;;;1.00;99.90;;;;;;5091193;28;20458;-82
2024/01/19 08:16:17;;;;;;;38.00;20.50;;;0.90;99.90;;;;;;5086704;28;20437;-81
2024/01/19 08:18:44;;;;;;;34.90;21.38;;;1.00;99.90;;;;;;5092094;28;20226;-84
2024/01/19 08:21:12;;;;;;;39.60;21.57;;;0.90;99.90;;;;;;5090447;28;20235;-80
2024/01/19 08:23:39;;;;;;;48.17;22.37;;;0.90;99.90;;;;;;5093268;28;20499;-83
2024/01/19 08:26:07;;;;;;;39.80;20.83;;;1.40;99.90;;;;;;5087299;28;20884;-83
2024/01/19 08:28:36;;;;;;;38.40;20.70;;;1.00;99.90;;;;;;5093255;28;20465;-82
2024/01/19 08:31:03;;;;;;;46.83;22.60;;;1.10;99.90;;;;;;5093325;28;20549;-84
2024/01/19 08:33:30;;;;;;;32.53;21.10;;;1.10;99.90;;;;;;5087977;28;20434;-83
2024/01/19 08:35:57;;;;;;;36.80;20.77;;;1.20;99.90;;;;;;5093599;28;20485;-82
2024/01/19 08:38:25;;;;;;;44.57;24.40;;;1.10;99.90;;;;;;5087354;28;20435;-83
2024/01/19 08:40:52;;;;;;;34.97;22.03;;;1.10;99.90;;;;;;5096289;28;20918;-82
2024/01/19 08:43:19;;;;;;;40.28;22.75;;;1.00;99.90;;;;;;5089790;28;20513;-84
2024/01/19 08:45:46;;;;;;;39.83;22.23;;;1.00;99.90;;;;;;5092937;28;20675;-84
2024/01/19 08:48:13;;;;;;;41.53;24.80;;;1.00;99.90;;;;;;5096320;28;20994;-83
2024/01/19 08:50:41;;;;;;;42.93;23.87;;;1.00;99.90;;;;;;5096402;28;20226;-84
2024/01/19 08:53:08;;;;;;;42.70;24.03;;;1.00;99.90;;;;;;5095893;28;20445;-85
2024/01/19 08:55:39;;;;;;;49.13;24.90;;;1.20;99.90;;;;;;5091896;28;20447;-81
2024/01/19 08:58:06;;;;;;;34.90;20.53;;;1.30;99.90;;;;;;5094204;28;21704;-83
2024/01/19 09:00:32;;;;;;;38.90;20.87;;;1.30;99.90;;;;;;5095274;28;20537;-81
2024/01/19 09:02:59;;;;;;;37.00;20.43;;;1.20;99.90;;;;;;5089202;28;20550;-82
2024/01/19 09:05:26;;;;;;;35.70;22.40;;;1.20;99.90;;;;;;5091998;28;20501;-83
2024/01/19 09:07:53;;;;;;;38.77;21.73;;;1.50;99.90;;;;;;5091038;28;20439;-83
2024/01/19 09:10:21;;;;;;;34.40;22.20;;;1.30;99.90;;;;;;5089248;28;20460;-84
2024/01/19 09:12:50;;;;;;;34.97;20.97;;;1.20;99.90;;;;;;5090910;28;20458;-81
2024/01/19 09:15:16;;;;;;;36.03;21.40;;;1.20;99.90;;;;;;5099051;28;20457;-83
2024/01/19 09:17:43;;;;;;;32.03;19.90;;;1.20;99.90;;;;;;5087432;28;20919;-83
2024/01/19 09:20:12;;;;;;;33.20;20.27;;;1.20;99.90;;;;;;5090422;28;20457;-81
2024/01/19 09:22:39;;;;;;;34.60;19.80;;;1.30;99.90;;;;;;5089369;28;20509;-82
2024/01/19 09:25:11;;;;;;;37.77;21.70;;;1.40;99.90;;;;;;5089255;28;20536;-81
2024/01/19 09:27:38;;;;;;;41.00;20.40;;;1.40;99.90;;;;;;5095820;28;20533;-80
2024/01/19 09:30:08;;;;;;;31.97;19.73;;;1.40;99.90;;;;;;5090062;28;20922;-82
2024/01/19 09:32:35;;;;;;;33.40;19.27;;;1.40;99.90;;;;;;5095069;28;20461;-82
2024/01/19 09:35:02;;;;;;;30.53;18.07;;;1.60;99.90;;;;;;5089697;28;20469;-83
2024/01/19 09:37:29;;;;;;;33.20;19.00;;;1.70;99.90;;;;;;5088293;28;20472;-84
2024/01/19 09:39:56;;;;;;;31.57;18.50;;;1.90;99.90;;;;;;5089827;28;20593;-82
2024/01/19 09:42:28;;;;;;;27.80;18.03;;;1.90;99.90;;;;;;5087843;28;20462;-82
2024/01/19 09:45:01;;;;;;;26.03;17.50;;;1.70;99.90;;;;;;5087016;28;20474;-83
2024/01/19 09:47:41;;;;;;;28.77;16.73;;;1.50;99.90;;;;;;5094245;28;20437;-84
2024/01/19 09:50:12;;;;;;;30.10;18.43;;;1.60;99.90;;;;;;5091741;28;20438;-82
2024/01/19 09:52:45;;;;;;;31.97;18.87;;;1.50;99.90;;;;;;5100460;28;20424;-81
2024/01/19 09:55:12;;;;;;;34.10;17.17;;;1.40;99.90;;;;;;5092421;28;20885;-84
2024/01/19 09:57:46;;;;;;;34.80;19.03;;;1.50;99.90;;;;;;5097132;28;20910;-81
2024/01/19 10:00:15;;;;;;;32.20;17.43;;;1.60;99.90;;;;;;5087293;28;20432;-82
2024/01/19 10:02:47;;;;;;;29.63;17.63;;;1.50;99.90;;;;;;5089758;28;20513;-82
2024/01/19 10:05:15;;;;;;;26.37;18.10;;;1.40;99.90;;;;;;5090674;28;20482;-84
2024/01/19 10:07:43;;;;;;;31.33;17.57;;;1.60;99.90;;;;;;5093685;28;20990;-84
2024/01/19 10:10:11;;;;;;;33.80;18.43;;;1.80;99.90;;;;;;5086235;28;20454;-82
2024/01/19 10:12:39;;;;;;;31.33;17.87;;;1.90;99.90;;;;;;5097223;28;20529;-83
2024/01/19 10:15:17;;;;;;;28.87;18.87;;;2.00;99.90;;;;;;5100436;28;20455;-82
2024/01/19 10:17:45;;;;;;;28.07;15.77;;;1.90;99.90;;;;;;5096971;28;20497;-83
2024/01/19 10:20:15;;;;;;;28.60;16.50;;;1.80;99.90;;;;;;5095916;28;20470;-83
2024/01/19 10:22:42;;;;;;;24.67;16.60;;;2.00;99.90;;;;;;5097107;28;20485;-83
2024/01/19 10:25:11;;;;;;;29.80;17.37;;;2.10;99.90;;;;;;5086813;28;20493;-83
2024/01/19 10:27:48;;;;;;;26.73;16.50;;;2.10;99.90;;;;;;5101465;28;20561;-84
2024/01/19 10:30:17;;;;;;;30.90;17.67;;;2.30;99.90;;;;;;5097117;28;20838;-84
2024/01/19 10:32:45;;;;;;;26.07;16.80;;;2.40;99.90;;;;;;5091133;28;20536;-84
2024/01/19 10:35:18;;;;;;;29.13;18.53;;;2.50;99.90;;;;;;5092084;28;20999;-83
2024/01/19 10:37:45;;;;;;;27.03;17.70;;;2.50;99.90;;;;;;5089457;28;20450;-82
2024/01/19 10:40:17;;;;;;;34.53;20.87;;;2.60;99.90;;;;;;5087487;28;20542;-83
2024/01/19 10:42:45;;;;;;;32.83;19.63;;;2.60;99.90;;;;;;5094107;28;20522;-82
2024/01/19 10:45:21;;;;;;;41.60;22.07;;;3.00;99.90;;;;;;5092091;28;20866;-82
2024/01/19 10:47:49;;;;;;;37.33;20.60;;;2.70;99.90;;;;;;5093664;28;20458;-81
2024/01/19 10:50:20;;;;;;;37.23;19.67;;;2.80;99.90;;;;;;5100309;28;20548;-83
2024/01/19 10:52:49;;;;;;;34.17;20.43;;;2.80;99.90;;;;;;5092914;28;20454;-80
2024/01/19 10:55:20;;;;;;;40.23;21.60;;;2.70;99.90;;;;;;5091296;28;20533;-83
2024/01/19 10:57:49;;;;;;;32.40;21.13;;;2.60;99.90;;;;;;5086067;28;20518;-81
2024/01/19 11:00:24;;;;;;;31.00;17.67;;;2.90;99.90;;;;;;5098888;28;20486;-84
2024/01/19 11:02:54;;;;;;;33.87;20.60;;;2.90;99.90;;;;;;5098204;28;20450;-83
2024/01/19 11:05:22;;;;;;;35.90;19.57;;;2.60;99.90;;;;;;5086165;28;20577;-83
2024/01/19 11:07:51;;;;;;;34.67;20.77;;;2.50;99.90;;;;;;5097667;28;20527;-83
2024/01/19 11:10:20;;;;;;;30.83;20.33;;;2.60;99.90;;;;;;5096108;28;20517;-84
2024/01/19 11:12:51;;;;;;;37.63;21.77;;;2.40;99.90;;;;;;5092505;28;20955;-82
2024/01/19 11:15:33;;;;;;;34.77;20.20;;;2.50;99.90;;;;;;5096385;28;20490;-84
2024/01/19 11:18:02;;;;;;;40.97;21.10;;;2.70;99.90;;;;;;5103396;28;21029;-81
2024/01/19 11:20:31;;;;;;;36.40;22.00;;;2.50;99.90;;;;;;5098447;28;20510;-83
2024/01/19 11:22:59;;;;;;;37.77;20.80;;;2.20;99.90;;;;;;5099599;28;20851;-82
2024/01/19 11:25:39;;;;;;;30.77;21.50;;;2.30;99.90;;;;;;5091076;28;20476;-81
2024/01/19 11:28:16;;;;;;;32.57;21.30;;;2.40;99.90;;;;;;5095218;28;20543;-82
2024/01/19 11:31:02;;;;;;;35.23;22.13;;;2.40;99.90;;;;;;5096903;28;20449;-81
2024/01/19 11:33:31;;;;;;;35.30;19.73;;;2.30;99.90;;;;;;5092158;28;20419;-83
2024/01/19 11:35:59;;;;;;;33.70;20.50;;;2.30;99.90;;;;;;5095547;28;20466;-83
2024/01/19 11:38:48;;;;;;;36.77;21.40;;;2.30;99.90;;;;;;5105030;28;20450;-83
2024/01/19 11:41:48;;;;;;;30.00;19.13;;;2.50;99.90;;;;;;5096671;28;20946;-83
2024/01/19 11:44:41;;;;;;;38.43;19.67;;;2.50;99.90;;;;;;5095024;28;20497;-83
2024/01/19 11:47:07;;;;;;;35.10;19.67;;;2.40;99.90;;;;;;5100999;28;20784;-84
2024/01/19 11:49:49;;;;;;;29.37;16.70;;;2.50;99.90;;;;;;5101311;28;20558;-82
2024/01/19 11:52:39;;;;;;;28.33;17.30;;;2.50;99.90;;;;;;5099036;28;20524;-84
2024/01/19 11:55:37;;;;;;;32.73;17.97;;;2.50;99.90;;;;;;5100594;28;20459;-82
2024/01/19 11:58:27;;;;;;;29.30;17.63;;;2.30;99.90;;;;;;5101874;28;20478;-81
2024/01/19 12:00:57;;;;;;;27.17;16.40;;;2.60;99.90;;;;;;5106164;28;20424;-82
2024/01/19 12:03:24;;;;;;;30.17;16.80;;;2.70;99.90;;;;;;5103811;28;20446;-82
2024/01/19 12:05:54;;;;;;;24.50;15.50;;;2.80;99.90;;;;;;5101473;28;21102;-84
2024/01/19 12:08:24;;;;;;;26.00;14.83;;;3.00;99.90;;;;;;5093356;28;20451;-82
2024/01/19 12:11:02;;;;;;;23.57;15.57;;;3.00;99.90;;;;;;5095011;28;20461;-82
2024/01/19 12:13:29;;;;;;;29.23;17.20;;;3.00;99.90;;;;;;5094541;28;20483;-82
2024/01/19 12:15:56;;;;;;;25.13;14.20;;;3.10;99.90;;;;;;5092348;28;20527;-81
2024/01/19 12:18:24;;;;;;;22.47;14.23;;;3.30;99.90;;;;;;5091920;28;20890;-83
2024/01/19 12:20:54;;;;;;;18.80;12.67;;;3.70;99.90;;;;;;5093791;28;20520;-84
2024/01/19 12:23:25;;;;;;;21.43;12.67;;;4.20;99.90;;;;;;5092502;28;20524;-82
2024/01/19 12:25:57;;;;;;;21.57;12.83;;;4.10;99.90;;;;;;5091043;28;20493;-85
2024/01/19 12:28:24;;;;;;;23.60;12.90;;;4.00;99.90;;;;;;5093797;28;20462;-82
2024/01/19 12:30:52;;;;;;;23.93;13.10;;;3.60;99.90;;;;;;5095625;28;20526;-81
2024/01/19 12:33:24;;;;;;;21.73;12.00;;;3.70;99.90;;;;;;5091742;28;20457;-82
2024/01/19 12:36:02;;;;;;;20.40;14.40;;;3.70;99.90;;;;;;5093748;28;20460;-82
2024/01/19 12:38:31;;;;;;;24.13;14.97;;;4.00;99.90;;;;;;5091720;28;20466;-85
2024/01/19 12:40:58;;;;;;;22.90;12.60;;;4.00;99.90;;;;;;5095581;28;20545;-82